TAF and METAR

Decoding for American and Canadian METARs and TAFs is not fully implemented.

Could not understand the following METAR

KVOA 290520Z AUTO 36017KT 10SM SCT021 BKN028 BKN034 26/22 A2988 RMK A01
No TAF available for Viosca Knoll768
Viosca Knoll768 in United States of America at 53m

Latest 5 airports